Agawam, MA (01001)

1:54 PM EST on December 28, 2014 (GMT -0500)
Sheri Lane | Change Station
CLOSE
Current Station
Personal Weather Station
Location: Agawam, MA
Elevation: 177 ft
Nearby Weather Stations

Elev 177 ft 42.08 °N, 72.64 °W | Updated 9 seconds ago

Overcast
Overcast
48.0 °F
Feels Like 45 °F
N
5.8
Wind Variable Wind from NNW
Gusts 5.8 mph

Today
High -- | Low -- °F
--% Chance of Precip.
Yesterday
High -- | Low -- °F
Precip. -- in
7:18 AM 4:26 PM
Waxing Crescent, 50% visible
Pressure 29.86 in
Visibility 10.0 miles
Clouds Scattered Clouds 2900 ft
Scattered Clouds 3300 ft
Windchill 45 °F
Dew Point 39 °F
Humidity 71%
Rainfall 0.02 in
Snow Depth Not available.
UV 1 out of 12
Pollen .10 out of 12
Air Quality Not available.
Flu Activity Not available.
SPECI KBAF 281846Z 31011G26KT 10SM SCT029 SCT033 08/03 A2986 RMK AO2 PK WND 31026/1843 T00830028

More Conditions Fewer Conditions

Pressure 29.86 in
Visibility 10.0 miles
Clouds Scattered Clouds 2900 ft
Scattered Clouds 3300 ft
Windchill 45 °F
Dew Point 39 °F
Humidity 71%
Rainfall 0.02 in
Snow Depth Not available.
UV 1 out of 12
Pollen .10 out of 12
Air Quality Not available.
Flu Activity Not available.
SPECI KBAF 281846Z 31011G26KT 10SM SCT029 SCT033 08/03 A2986 RMK AO2 PK WND 31026/1843 T00830028

More Conditions Fewer Conditions

10-Day Weather Forecast

Almanac

Astronomy

Dec. 28, 2014 Rise Set
Actual Time
Civil Twilight
Nautical Twilight
Astronomical Twilight
Moon
Length of Visible Light
Length of Day
Tomorrow will be .
, % of the Moon is Illuminated

Today's Extremes

State Highs State Lows

Community

WunderPhotos

Upload Photos

1,781,383 photos uploaded!

WunderBlogs® & News

Nearby

Air Quality

  Air Quality AQ Index Pollutant
Not available.

Snow Depth

Station Depth Elevation

Earthquake Activity

City Distance Mag. Time & Date
Minimum magnitude displayed is 2.5.

Coastal Water Temperatures

Place Temperature

Nearby Weather Stations